Pagrindinis puslapis
METAR-TAF:

METAR-TAF

Oro uostai :

Wadi ad-Dawasir, Saudo Arabija

platuma: 20-30N, ilguma: 045-12E, Aukštis: 624 m

Dabartinis oras

Ataskaita buvo paskelbta 1 valandą ir 15 minutes, ne 12:00 UTC
Vėjas 10 kt iš Vakarų/Pietvakarių
Temperatūra 29°C
Drėgmė 29%
Slėgis 1014 hPa
Matomumas: 8000 m

METAR: OEWD 281200Z 25010KT 8000 NSC 29/09 Q1014

Laikas: 16:15 (13:15 UTC)

Prognozė

Prognozė galioja nuo 28 metu 12 UTC su 29 metu 18 UTC
Vėjas 12 kt iš Rytų/Pietryčių
Matomumas: 7000 m
Laikinai
nuo 28 metu 12 UTC su 28 metu 18 UTC
Matomumas: 4000 m
dulkės

TAF: OEWD 2812/2918 12012KT 7000 NSC TEMPO 2812/2818 4000 DU

Orai ataskaitas ir orų prognozės (METAR, TAF).

turimą stotys yra geltonos ir raudonos taškus žemėlapyje.

Perkelti pele per norėdami pamatyti stoties vardą.

Tada spustelėkite, norėdami matyti oro stebėjimo ir prognozės.

Norėdami pakeisti žemėlapį: spustelėkite ant žalios mygtukų su juodo kryžiaus žemyn,; žalią mygtuką su brūkšneliu, jei norite nutolinti; arba žalių rodyklių gretimoms žemėlapius.


METAR-TAF: